Time;durP1;ratioP1;P1;durP2;ratioP2;P2;SDS_P1;SDS_P2;PMS_P1;PMS_P2;Temp;Humidity;BMP_temperature;BMP_pressure;BME280_temperature;BME280_humidity;BME280_pressure;Samples;Min_cycle;Max_cycle;Signal;HPM_P1;HPM_P2
2022/02/27 00:01:40;;;;;;;10.90;6.65;;;1.50;99.90;;;;;;5093106;28;20672;-63
2022/02/27 00:04:07;;;;;;;7.13;5.43;;;1.40;99.90;;;;;;5093044;28;20196;-64
2022/02/27 00:06:34;;;;;;;12.38;5.70;;;1.40;99.90;;;;;;5093202;28;20204;-63
2022/02/27 00:09:02;;;;;;;12.77;6.57;;;1.40;99.90;;;;;;5093455;28;20548;-62
2022/02/27 00:11:30;;;;;;;10.85;6.43;;;1.40;99.90;;;;;;5093202;28;20672;-63
2022/02/27 00:13:57;;;;;;;7.57;6.40;;;1.40;99.90;;;;;;5093065;28;20710;-63
2022/02/27 00:16:24;;;;;;;14.40;7.22;;;1.40;99.90;;;;;;5093454;28;20223;-63
2022/02/27 00:18:51;;;;;;;11.07;6.60;;;1.40;99.90;;;;;;5093059;28;20610;-62
2022/02/27 00:21:18;;;;;;;10.52;6.05;;;1.30;99.90;;;;;;5093036;28;20200;-62
2022/02/27 00:23:45;;;;;;;11.82;6.22;;;1.30;99.90;;;;;;5092977;28;20228;-63
2022/02/27 00:26:12;;;;;;;13.50;6.10;;;1.30;99.90;;;;;;5097498;28;20559;-62
2022/02/27 00:28:41;;;;;;;11.25;6.75;;;1.30;99.90;;;;;;5097465;28;20231;-63
2022/02/27 00:31:08;;;;;;;11.30;6.35;;;1.30;99.90;;;;;;5097768;28;20228;-62
2022/02/27 00:33:36;;;;;;;7.78;6.50;;;1.30;99.90;;;;;;5097722;28;20216;-63
2022/02/27 00:36:03;;;;;;;15.88;6.75;;;1.30;99.90;;;;;;5097481;28;20207;-63
2022/02/27 00:38:31;;;;;;;11.38;6.95;;;1.30;99.90;;;;;;5097758;28;20283;-63
2022/02/27 00:40:58;;;;;;;13.48;7.40;;;1.30;99.90;;;;;;5097126;28;20253;-63
2022/02/27 00:43:25;;;;;;;12.77;6.53;;;1.30;99.90;;;;;;5096718;28;20216;-62
2022/02/27 00:45:54;;;;;;;8.45;7.18;;;1.30;99.90;;;;;;5097211;28;20205;-63
2022/02/27 00:48:21;;;;;;;8.23;6.57;;;1.30;99.90;;;;;;5096998;28;20200;-63
2022/02/27 00:50:48;;;;;;;17.00;6.63;;;1.20;99.90;;;;;;5096567;28;20691;-62
2022/02/27 00:53:15;;;;;;;10.38;6.38;;;1.20;99.90;;;;;;5096330;28;20231;-62
2022/02/27 00:55:42;;;;;;;8.75;6.55;;;1.20;99.90;;;;;;5096716;28;20227;-63
2022/02/27 00:58:09;;;;;;;11.63;6.97;;;1.10;99.90;;;;;;5096684;28;20208;-62
2022/02/27 01:00:36;;;;;;;9.05;5.80;;;1.10;99.90;;;;;;5096672;28;20211;-63
2022/02/27 01:03:04;;;;;;;11.23;7.40;;;1.00;99.90;;;;;;5096306;28;20227;-63
2022/02/27 01:05:32;;;;;;;17.27;8.07;;;1.00;99.90;;;;;;5096630;28;20204;-62
2022/02/27 01:07:59;;;;;;;9.10;6.47;;;1.00;99.90;;;;;;5096618;28;20552;-61
2022/02/27 01:10:26;;;;;;;9.80;7.13;;;1.00;99.90;;;;;;5096349;28;20207;-63
2022/02/27 01:12:53;;;;;;;9.93;6.43;;;0.90;99.90;;;;;;5096211;28;20217;-63
2022/02/27 01:15:20;;;;;;;8.88;6.93;;;0.90;99.90;;;;;;5096312;28;20224;-63
2022/02/27 01:17:47;;;;;;;16.83;8.02;;;0.90;99.90;;;;;;5096260;28;20212;-62
2022/02/27 01:20:16;;;;;;;13.18;8.35;;;0.80;99.90;;;;;;5097417;28;20299;-61
2022/02/27 01:22:43;;;;;;;13.27;7.93;;;0.80;99.90;;;;;;5100784;28;20742;-62
2022/02/27 01:25:11;;;;;;;10.20;7.15;;;0.70;99.90;;;;;;5102099;28;20203;-61
2022/02/27 01:27:38;;;;;;;13.32;7.75;;;0.70;99.90;;;;;;5101075;28;20205;-62
2022/02/27 01:30:08;;;;;;;11.52;7.10;;;0.70;99.90;;;;;;5102666;28;20676;-62
2022/02/27 01:32:37;;;;;;;10.07;6.72;;;0.70;99.90;;;;;;5099132;28;20227;-62
2022/02/27 01:35:07;;;;;;;11.40;7.22;;;0.60;99.90;;;;;;5101787;28;20301;-62
2022/02/27 01:37:35;;;;;;;11.90;7.85;;;0.70;99.90;;;;;;5101083;28;20621;-62
2022/02/27 01:40:03;;;;;;;9.10;6.55;;;0.60;99.90;;;;;;5098368;28;20211;-61
2022/02/27 01:42:31;;;;;;;10.43;7.05;;;0.60;99.90;;;;;;5097574;28;20220;-62
2022/02/27 01:44:58;;;;;;;10.40;7.40;;;0.60;99.90;;;;;;5096848;28;20212;-62
2022/02/27 01:47:25;;;;;;;9.85;7.22;;;0.60;99.90;;;;;;5096949;28;20207;-62
2022/02/27 01:49:52;;;;;;;14.48;7.43;;;0.60;99.90;;;;;;5097544;28;20200;-61
2022/02/27 01:52:19;;;;;;;8.82;6.70;;;0.60;99.90;;;;;;5097635;28;20221;-62
2022/02/27 01:54:48;;;;;;;9.52;7.13;;;0.60;99.90;;;;;;5116023;28;20222;-63
2022/02/27 01:57:15;;;;;;;16.08;7.80;;;0.60;99.90;;;;;;5101959;28;20200;-62
2022/02/27 01:59:43;;;;;;;13.38;8.20;;;0.60;99.90;;;;;;5096571;28;20204;-62
2022/02/27 02:02:10;;;;;;;15.13;7.60;;;0.60;99.90;;;;;;5096395;28;20229;-63
2022/02/27 02:04:38;;;;;;;13.00;7.60;;;0.60;99.90;;;;;;5096319;28;20203;-62
2022/02/27 02:07:06;;;;;;;14.30;8.38;;;0.50;99.90;;;;;;5108030;28;20196;-62
2022/02/27 02:09:33;;;;;;;11.55;7.30;;;0.50;99.90;;;;;;5106644;28;20212;-62
2022/02/27 02:12:01;;;;;;;13.73;8.52;;;0.50;99.90;;;;;;5106846;28;20245;-62
2022/02/27 02:14:28;;;;;;;10.15;6.80;;;0.50;99.90;;;;;;5102728;28;20216;-61
2022/02/27 02:16:56;;;;;;;13.48;7.78;;;0.50;99.90;;;;;;5100368;28;20548;-62
2022/02/27 02:19:25;;;;;;;14.93;7.32;;;0.40;99.90;;;;;;5096563;28;20201;-63
2022/02/27 02:21:58;;;;;;;12.15;8.02;;;0.40;99.90;;;;;;5095064;28;20898;-62
2022/02/27 02:24:25;;;;;;;12.13;8.00;;;0.40;99.90;;;;;;5095280;28;20177;-61
2022/02/27 02:26:52;;;;;;;12.93;8.35;;;0.30;99.90;;;;;;5096178;28;20207;-62
2022/02/27 02:29:21;;;;;;;14.25;8.00;;;0.30;99.90;;;;;;5096745;28;20207;-64
2022/02/27 02:31:50;;;;;;;14.20;7.50;;;0.30;99.90;;;;;;5096772;28;20230;-63
2022/02/27 02:34:19;;;;;;;14.32;7.95;;;0.20;99.90;;;;;;5095912;28;20204;-62
2022/02/27 02:36:47;;;;;;;14.80;8.43;;;0.20;99.90;;;;;;5095979;28;20207;-62
2022/02/27 02:39:17;;;;;;;10.52;7.07;;;0.20;99.90;;;;;;5095200;28;20201;-62
2022/02/27 02:41:45;;;;;;;14.32;8.57;;;0.30;99.90;;;;;;5095465;28;20196;-63
2022/02/27 02:44:13;;;;;;;9.18;6.88;;;0.20;99.90;;;;;;5095100;28;20200;-62
2022/02/27 02:46:40;;;;;;;9.35;7.78;;;0.20;99.90;;;;;;5094907;28;20579;-62
2022/02/27 02:49:09;;;;;;;16.75;7.47;;;0.20;99.90;;;;;;5093870;28;20707;-61
2022/02/27 02:51:37;;;;;;;15.85;7.55;;;0.20;99.90;;;;;;5095123;28;20580;-62
2022/02/27 02:54:04;;;;;;;13.90;7.65;;;0.20;99.90;;;;;;5095200;28;20219;-61
2022/02/27 02:56:33;;;;;;;11.85;7.57;;;0.20;99.90;;;;;;5095508;28;20215;-62
2022/02/27 02:59:00;;;;;;;13.02;7.68;;;0.20;99.90;;;;;;5096858;28;20200;-62
2022/02/27 03:01:28;;;;;;;11.80;7.65;;;0.10;99.90;;;;;;5096115;28;20207;-63
2022/02/27 03:03:56;;;;;;;11.77;7.45;;;0.10;99.90;;;;;;5095557;28;20220;-62
2022/02/27 03:06:24;;;;;;;13.43;8.02;;;0.10;99.90;;;;;;5095888;28;20200;-62
2022/02/27 03:08:52;;;;;;;13.00;7.65;;;0.10;99.90;;;;;;5096259;28;20204;-61
2022/02/27 03:11:21;;;;;;;9.30;7.00;;;0.10;99.90;;;;;;5095462;28;20679;-63
2022/02/27 03:13:50;;;;;;;14.07;7.60;;;0.10;99.90;;;;;;5095613;28;20235;-61
2022/02/27 03:16:18;;;;;;;8.27;7.43;;;0.10;99.90;;;;;;5095298;28;20220;-62
2022/02/27 03:18:45;;;;;;;13.15;8.27;;;0.10;99.90;;;;;;5095124;28;20204;-62
2022/02/27 03:21:12;;;;;;;11.05;8.10;;;0.00;99.90;;;;;;5094624;28;20549;-63
2022/02/27 03:23:40;;;;;;;13.43;7.95;;;0.00;99.90;;;;;;5099765;28;20235;-62
2022/02/27 03:26:07;;;;;;;11.88;7.47;;;0.00;99.90;;;;;;5099052;28;20198;-62
2022/02/27 03:28:34;;;;;;;19.00;8.25;;;0.00;99.90;;;;;;5097884;28;20204;-62
2022/02/27 03:31:03;;;;;;;16.30;9.27;;;0.00;99.90;;;;;;5094415;28;20204;-63
2022/02/27 03:33:30;;;;;;;12.70;7.50;;;0.00;99.90;;;;;;5093871;28;20224;-63
2022/02/27 03:35:57;;;;;;;13.73;8.20;;;0.00;99.90;;;;;;5093851;28;20227;-62
2022/02/27 03:38:24;;;;;;;15.65;7.70;;;0.00;99.90;;;;;;5093759;28;20205;-62
2022/02/27 03:40:51;;;;;;;11.45;8.60;;;0.00;99.90;;;;;;5093399;28;20204;-63
2022/02/27 03:43:18;;;;;;;16.65;7.85;;;0.00;99.90;;;;;;5093860;28;20228;-62
2022/02/27 03:45:45;;;;;;;15.95;8.95;;;0.00;99.90;;;;;;5093889;28;20200;-63
2022/02/27 03:48:14;;;;;;;13.50;7.50;;;-0.10;99.90;;;;;;5093397;28;20204;-61
2022/02/27 03:50:41;;;;;;;13.38;8.38;;;-0.10;99.90;;;;;;5093534;28;20643;-62
2022/02/27 03:53:08;;;;;;;13.32;8.18;;;-0.10;99.90;;;;;;5093508;28;20708;-63
2022/02/27 03:55:35;;;;;;;12.70;7.90;;;-0.10;99.90;;;;;;5093484;28;20302;-62
2022/02/27 03:58:03;;;;;;;12.75;8.60;;;-0.10;99.90;;;;;;5093892;28;20598;-62
2022/02/27 04:00:30;;;;;;;12.52;7.80;;;-0.10;99.90;;;;;;5093293;28;20196;-62
2022/02/27 04:02:57;;;;;;;13.68;7.95;;;-0.20;99.90;;;;;;5092914;28;20227;-61
2022/02/27 04:05:26;;;;;;;15.02;7.95;;;-0.20;99.90;;;;;;5093533;28;20196;-62
2022/02/27 04:09:22;;;;;;;17.67;10.88;;;-0.20;99.90;;;;;;5091301;27;20545;-62
2022/02/27 04:11:49;;;;;;;13.13;8.10;;;-0.20;99.90;;;;;;5090394;28;20668;-62
2022/02/27 04:14:16;;;;;;;23.20;9.00;;;-0.20;99.90;;;;;;5090688;28;20279;-62
2022/02/27 04:16:43;;;;;;;10.10;7.85;;;-0.20;99.90;;;;;;5090329;28;20204;-62
2022/02/27 04:21:44;;;;;;;11.82;7.38;;;-0.20;99.90;;;;;;5072958;22;20565;-55
2022/02/27 04:24:11;;;;;;;10.57;8.82;;;-0.20;99.90;;;;;;5053730;28;20209;-56
2022/02/27 04:26:40;;;;;;;11.27;7.90;;;-0.20;99.90;;;;;;5052990;28;20201;-56
2022/02/27 04:29:07;;;;;;;10.82;7.45;;;-0.20;99.90;;;;;;5052809;28;20720;-56
2022/02/27 04:31:34;;;;;;;13.13;7.70;;;-0.20;99.90;;;;;;5051296;28;20240;-56
2022/02/27 04:34:01;;;;;;;15.38;8.07;;;-0.20;99.90;;;;;;5050144;28;20580;-56
2022/02/27 04:36:28;;;;;;;16.42;10.15;;;-0.30;99.90;;;;;;5049769;28;20678;-57
2022/02/27 04:38:56;;;;;;;12.82;9.13;;;-0.30;99.90;;;;;;5049834;28;20201;-56
2022/02/27 04:41:23;;;;;;;11.88;8.60;;;-0.30;99.90;;;;;;5049894;28;20225;-56
2022/02/27 04:43:51;;;;;;;13.75;8.40;;;-0.30;99.90;;;;;;5049638;28;20209;-56
2022/02/27 04:46:18;;;;;;;11.73;8.30;;;-0.30;99.90;;;;;;5049842;28;20198;-58
2022/02/27 04:48:46;;;;;;;12.00;8.15;;;-0.30;99.90;;;;;;5049907;28;20243;-57
2022/02/27 04:51:13;;;;;;;15.05;8.15;;;-0.30;99.90;;;;;;5050180;28;20222;-58
2022/02/27 04:53:40;;;;;;;14.75;8.70;;;-0.40;99.90;;;;;;5050414;28;20205;-57
2022/02/27 04:56:08;;;;;;;13.52;9.10;;;-0.30;99.90;;;;;;5050870;28;20202;-57
2022/02/27 04:58:35;;;;;;;17.30;9.82;;;-0.30;99.90;;;;;;5050094;28;20201;-57
2022/02/27 05:01:04;;;;;;;14.95;8.60;;;-0.30;99.90;;;;;;5050291;28;20222;-57
2022/02/27 05:03:31;;;;;;;19.58;9.95;;;-0.30;99.90;;;;;;5061057;28;20198;-58
2022/02/27 05:05:58;;;;;;;11.82;9.00;;;-0.30;99.90;;;;;;5059150;28;20582;-57
2022/02/27 05:08:25;;;;;;;12.88;9.25;;;-0.30;99.90;;;;;;5052052;28;20226;-58
2022/02/27 05:10:52;;;;;;;13.05;8.68;;;-0.30;99.90;;;;;;5049771;28;20221;-57
2022/02/27 05:13:19;;;;;;;15.20;8.82;;;-0.30;99.90;;;;;;5049400;28;20208;-58
2022/02/27 05:15:46;;;;;;;12.27;9.00;;;-0.30;99.90;;;;;;5049107;28;20206;-57
2022/02/27 05:18:15;;;;;;;14.77;9.52;;;-0.30;99.90;;;;;;5049172;28;20681;-57
2022/02/27 05:20:42;;;;;;;15.05;9.32;;;-0.30;99.90;;;;;;5035734;28;20241;-57
2022/02/27 05:23:09;;;;;;;12.63;9.70;;;-0.30;99.90;;;;;;5036096;28;20210;-57
2022/02/27 05:25:36;;;;;;;11.88;8.40;;;-0.30;99.90;;;;;;5035979;28;20560;-57
2022/02/27 05:28:03;;;;;;;11.55;10.13;;;-0.30;99.90;;;;;;5035679;28;20226;-58
2022/02/27 05:30:30;;;;;;;10.98;9.27;;;-0.30;99.90;;;;;;5035830;28;20226;-57
2022/02/27 05:32:57;;;;;;;13.88;8.85;;;-0.30;99.90;;;;;;5035822;28;20213;-57
2022/02/27 05:35:26;;;;;;;13.50;8.95;;;-0.30;99.90;;;;;;5035853;28;20203;-57
2022/02/27 05:37:53;;;;;;;12.88;8.90;;;-0.30;99.90;;;;;;5035353;28;20202;-58
2022/02/27 05:40:20;;;;;;;21.67;10.68;;;-0.30;99.90;;;;;;5035576;28;20222;-59
2022/02/27 05:42:47;;;;;;;16.08;10.57;;;-0.30;99.90;;;;;;5035472;28;20214;-58
2022/02/27 05:45:14;;;;;;;17.55;9.50;;;-0.30;99.90;;;;;;5035909;28;20202;-58
2022/02/27 05:47:41;;;;;;;18.10;9.80;;;-0.30;99.90;;;;;;5036407;28;20213;-58
2022/02/27 05:50:09;;;;;;;18.08;10.30;;;-0.30;99.90;;;;;;5035101;28;20726;-58
2022/02/27 05:52:38;;;;;;;17.42;9.35;;;-0.30;99.90;;;;;;5035388;28;20209;-58
2022/02/27 05:55:06;;;;;;;19.15;9.68;;;-0.30;99.90;;;;;;5035148;28;20206;-59
2022/02/27 05:57:33;;;;;;;18.27;9.25;;;-0.30;99.90;;;;;;5035358;28;20206;-59
2022/02/27 06:00:00;;;;;;;24.00;11.60;;;-0.30;99.90;;;;;;5034806;28;20230;-59
2022/02/27 06:02:27;;;;;;;15.98;9.73;;;-0.30;99.90;;;;;;5034864;28;20206;-60
2022/02/27 06:04:54;;;;;;;16.73;10.30;;;-0.30;99.90;;;;;;5035198;28;20203;-59
2022/02/27 06:07:21;;;;;;;17.77;10.88;;;-0.30;99.90;;;;;;5035064;28;20203;-59
2022/02/27 06:09:51;;;;;;;12.23;10.48;;;-0.30;99.90;;;;;;5034935;28;20283;-59
2022/02/27 06:12:18;;;;;;;17.33;9.73;;;-0.30;99.90;;;;;;5035093;28;20202;-59
2022/02/27 06:14:45;;;;;;;18.80;10.55;;;-0.30;99.90;;;;;;5034916;28;20209;-58
2022/02/27 06:17:12;;;;;;;19.40;10.40;;;-0.30;99.90;;;;;;5034722;28;20209;-59
2022/02/27 06:19:39;;;;;;;13.35;10.80;;;-0.30;99.90;;;;;;5034766;28;20544;-59
2022/02/27 06:22:07;;;;;;;15.80;10.73;;;-0.30;99.90;;;;;;5034809;28;20193;-58
2022/02/27 06:24:34;;;;;;;15.00;11.00;;;-0.30;99.90;;;;;;5035030;28;20202;-58
2022/02/27 06:27:04;;;;;;;16.30;10.30;;;-0.30;99.90;;;;;;5034805;28;20203;-58
2022/02/27 06:29:31;;;;;;;20.80;11.55;;;-0.30;99.90;;;;;;5035168;28;20222;-59
2022/02/27 06:31:58;;;;;;;17.25;10.95;;;-0.30;99.90;;;;;;5035306;28;20206;-59
2022/02/27 06:34:25;;;;;;;24.27;11.43;;;-0.30;99.90;;;;;;5036384;28;20690;-59
2022/02/27 06:36:52;;;;;;;17.48;11.30;;;-0.20;99.90;;;;;;5036557;28;20210;-59
2022/02/27 06:39:19;;;;;;;16.13;11.43;;;-0.20;99.90;;;;;;5036299;28;20202;-59
2022/02/27 06:41:46;;;;;;;15.85;11.00;;;-0.20;99.90;;;;;;5035224;28;20209;-58
2022/02/27 06:44:15;;;;;;;20.65;11.50;;;-0.20;99.90;;;;;;5035456;28;20202;-58
2022/02/27 06:46:42;;;;;;;16.25;10.55;;;-0.10;99.90;;;;;;5034513;28;20198;-58
2022/02/27 06:49:09;;;;;;;17.00;10.60;;;-0.10;99.90;;;;;;5034391;28;20222;-58
2022/02/27 06:51:36;;;;;;;14.73;9.32;;;-0.10;99.90;;;;;;5034606;28;20309;-60
2022/02/27 06:54:04;;;;;;;18.33;11.55;;;-0.10;99.90;;;;;;5035095;28;20670;-58
2022/02/27 06:56:31;;;;;;;15.82;10.45;;;0.00;99.90;;;;;;5034270;28;20198;-60
2022/02/27 06:58:58;;;;;;;15.82;11.05;;;0.10;99.90;;;;;;5033908;28;20682;-59
2022/02/27 07:01:26;;;;;;;15.88;11.23;;;0.10;99.90;;;;;;5034667;28;20234;-58
2022/02/27 07:03:53;;;;;;;17.95;11.40;;;0.10;99.90;;;;;;5034326;28;20209;-58
2022/02/27 07:06:20;;;;;;;16.00;11.23;;;0.20;99.90;;;;;;5034143;28;20288;-59
2022/02/27 07:08:47;;;;;;;13.23;9.82;;;0.20;99.90;;;;;;5033679;28;20724;-59
2022/02/27 07:11:14;;;;;;;17.30;11.15;;;0.30;99.90;;;;;;5033867;28;20230;-59
2022/02/27 07:13:46;;;;;;;19.65;10.43;;;0.40;99.90;;;;;;5033863;28;20209;-59
2022/02/27 07:16:15;;;;;;;12.95;9.80;;;0.50;99.90;;;;;;5034354;28;20197;-59
2022/02/27 07:18:44;;;;;;;16.58;11.60;;;0.60;99.90;;;;;;5033528;28;20205;-59
2022/02/27 07:21:11;;;;;;;14.13;10.60;;;0.60;99.90;;;;;;5033412;28;20270;-59
2022/02/27 07:23:38;;;;;;;19.40;10.55;;;0.70;99.90;;;;;;5033558;28;20206;-59
2022/02/27 07:26:05;;;;;;;19.08;11.63;;;0.80;99.90;;;;;;5033630;28;20210;-60
2022/02/27 07:28:32;;;;;;;16.70;10.05;;;1.00;99.90;;;;;;5033592;28;20230;-59
2022/02/27 07:30:59;;;;;;;13.18;9.18;;;1.20;99.90;;;;;;5033372;28;20223;-59
2022/02/27 07:33:26;;;;;;;14.32;10.80;;;1.30;99.90;;;;;;5033203;28;20670;-59
2022/02/27 07:35:54;;;;;;;15.93;10.85;;;1.40;99.90;;;;;;5033171;28;20206;-59
2022/02/27 07:38:21;;;;;;;14.55;9.60;;;1.50;99.90;;;;;;5033522;28;20206;-60
2022/02/27 07:40:49;;;;;;;17.92;11.38;;;1.60;99.90;;;;;;5033548;28;20233;-60
2022/02/27 07:43:16;;;;;;;15.48;9.60;;;1.70;99.90;;;;;;5032853;28;20202;-59
2022/02/27 07:45:43;;;;;;;19.52;9.70;;;1.80;99.90;;;;;;5033589;28;20573;-59
2022/02/27 07:48:10;;;;;;;13.77;10.10;;;1.90;99.90;;;;;;5033120;28;20214;-59
2022/02/27 07:50:37;;;;;;;17.52;10.50;;;2.10;99.90;;;;;;5033318;28;20228;-58
2022/02/27 07:53:06;;;;;;;13.32;9.25;;;2.20;99.90;;;;;;5033341;28;20207;-58
2022/02/27 07:55:33;;;;;;;15.25;9.48;;;2.40;99.90;;;;;;5033402;28;20575;-58
2022/02/27 07:58:00;;;;;;;15.05;10.25;;;2.50;99.90;;;;;;5033222;28;20198;-58
2022/02/27 08:00:27;;;;;;;14.48;10.20;;;2.60;99.90;;;;;;5033125;28;20217;-58
2022/02/27 08:02:54;;;;;;;13.35;9.48;;;2.70;99.90;;;;;;5033150;28;20206;-58
2022/02/27 08:05:22;;;;;;;15.70;10.57;;;2.80;99.90;;;;;;5033068;28;20202;-58
2022/02/27 08:07:49;;;;;;;18.98;10.63;;;2.90;99.90;;;;;;5033087;28;20213;-59
2022/02/27 08:10:18;;;;;;;15.32;9.45;;;2.90;99.90;;;;;;5032898;28;20233;-59
2022/02/27 08:12:45;;;;;;;12.85;9.35;;;3.00;99.90;;;;;;5033103;28;20210;-59
2022/02/27 08:15:14;;;;;;;14.45;9.23;;;3.00;99.90;;;;;;5033027;28;20198;-59
2022/02/27 08:17:41;;;;;;;14.68;9.95;;;3.10;99.90;;;;;;5033291;28;20202;-60
2022/02/27 08:20:09;;;;;;;15.63;10.05;;;3.10;99.90;;;;;;5032762;28;20233;-59
2022/02/27 08:22:37;;;;;;;16.80;9.60;;;3.10;99.90;;;;;;5032737;28;20203;-59
2022/02/27 08:25:05;;;;;;;14.95;9.75;;;3.10;99.90;;;;;;5032906;28;20581;-59
2022/02/27 08:27:34;;;;;;;15.45;9.82;;;3.30;99.90;;;;;;5032832;28;20721;-59
2022/02/27 08:30:01;;;;;;;13.85;10.18;;;3.40;99.90;;;;;;5032679;28;20717;-60
2022/02/27 08:32:29;;;;;;;15.50;9.93;;;3.50;99.90;;;;;;5033199;28;20206;-57
2022/02/27 08:34:56;;;;;;;16.58;10.02;;;3.60;99.90;;;;;;5032772;28;20611;-59
2022/02/27 08:37:23;;;;;;;16.38;9.98;;;3.70;99.90;;;;;;5032633;28;20209;-59
2022/02/27 08:39:50;;;;;;;15.85;10.63;;;3.80;99.90;;;;;;5032968;28;20251;-59
2022/02/27 08:42:17;;;;;;;18.05;10.48;;;3.90;99.90;;;;;;5033016;28;20206;-57
2022/02/27 08:44:45;;;;;;;19.13;11.23;;;4.00;99.90;;;;;;5032855;28;20229;-59
2022/02/27 08:47:12;;;;;;;16.23;10.40;;;4.20;99.90;;;;;;5032395;28;20572;-60
2022/02/27 08:49:39;;;;;;;14.73;9.95;;;4.30;99.90;;;;;;5032632;28;20222;-60
2022/02/27 08:52:07;;;;;;;13.68;8.85;;;4.40;99.90;;;;;;5032626;28;20206;-59
2022/02/27 08:54:34;;;;;;;14.65;8.38;;;4.60;99.90;;;;;;5033441;28;20297;-59
2022/02/27 08:57:01;;;;;;;15.35;10.63;;;4.60;99.90;;;;;;5036173;28;20252;-59
2022/02/27 08:59:29;;;;;;;12.18;9.00;;;4.70;99.90;;;;;;5036961;28;20210;-60
2022/02/27 09:01:57;;;;;;;15.93;10.75;;;4.80;99.90;;;;;;5037068;28;20202;-60
2022/02/27 09:04:24;;;;;;;13.82;8.50;;;4.90;99.90;;;;;;5036328;28;20264;-59
2022/02/27 09:06:51;;;;;;;13.27;7.95;;;5.00;99.90;;;;;;5036201;28;20202;-60
2022/02/27 09:09:20;;;;;;;11.80;8.57;;;5.10;99.90;;;;;;5035978;28;20653;-60
2022/02/27 09:11:47;;;;;;;10.43;8.50;;;5.20;99.90;;;;;;5036073;28;20206;-60
2022/02/27 09:14:14;;;;;;;13.00;8.85;;;5.30;99.90;;;;;;5035615;28;20198;-60
2022/02/27 09:16:41;;;;;;;10.30;8.63;;;5.40;99.90;;;;;;5036073;28;20202;-60
2022/02/27 09:19:10;;;;;;;14.82;8.05;;;5.40;99.90;;;;;;5035891;28;20210;-60
2022/02/27 09:21:37;;;;;;;10.38;8.25;;;5.50;99.90;;;;;;5035496;28;20230;-60
2022/02/27 09:24:05;;;;;;;10.60;8.00;;;5.50;99.90;;;;;;5035905;28;20206;-60
2022/02/27 09:26:32;;;;;;;11.80;9.07;;;5.50;99.90;;;;;;5035925;28;20233;-60
2022/02/27 09:28:59;;;;;;;8.85;7.30;;;5.60;99.90;;;;;;5035358;28;20226;-59
2022/02/27 09:31:26;;;;;;;17.33;8.23;;;5.60;99.90;;;;;;5035732;28;20233;-59
2022/02/27 09:33:53;;;;;;;10.52;8.02;;;5.70;99.90;;;;;;5035684;28;20229;-59
2022/02/27 09:36:26;;;;;;;10.85;8.10;;;5.70;99.90;;;;;;5035696;28;20210;-60
2022/02/27 09:38:53;;;;;;;13.70;8.80;;;5.70;99.90;;;;;;5035478;28;20301;-60
2022/02/27 09:41:21;;;;;;;10.18;7.30;;;5.80;99.90;;;;;;5036261;28;20249;-58
2022/02/27 09:43:56;;;;;;;9.57;6.90;;;5.90;99.90;;;;;;5035353;28;20210;-60
2022/02/27 09:46:23;;;;;;;9.98;7.65;;;6.10;99.90;;;;;;5035585;28;20191;-60
2022/02/27 09:48:51;;;;;;;11.65;8.20;;;6.20;99.90;;;;;;5035176;28;20670;-60
2022/02/27 09:51:18;;;;;;;14.20;7.53;;;6.30;99.90;;;;;;5035450;28;20222;-59
2022/02/27 09:53:47;;;;;;;13.23;7.78;;;6.40;99.60;;;;;;5035006;28;20552;-60
2022/02/27 09:56:14;;;;;;;9.18;7.45;;;6.50;99.20;;;;;;5034972;28;20714;-60
2022/02/27 09:58:41;;;;;;;11.05;7.00;;;6.60;98.60;;;;;;5035177;28;20210;-60
2022/02/27 10:01:09;;;;;;;9.68;6.82;;;6.70;98.00;;;;;;5034998;28;20296;-60
2022/02/27 10:03:36;;;;;;;12.18;6.70;;;6.70;97.60;;;;;;5035539;28;20202;-59
2022/02/27 10:06:05;;;;;;;7.50;6.47;;;6.80;97.20;;;;;;5035050;28;20213;-60
2022/02/27 10:08:40;;;;;;;9.02;6.05;;;6.80;96.70;;;;;;5035124;28;20207;-60
2022/02/27 10:11:12;;;;;;;8.50;6.28;;;6.90;96.10;;;;;;5035032;28;20244;-60
2022/02/27 10:13:42;;;;;;;10.70;6.53;;;6.90;95.40;;;;;;5035062;28;20241;-60
2022/02/27 10:16:11;;;;;;;9.82;6.93;;;7.00;95.00;;;;;;5035116;28;20232;-60
2022/02/27 10:18:39;;;;;;;11.60;7.30;;;7.10;94.60;;;;;;5034753;28;20666;-60
2022/02/27 10:21:21;;;;;;;11.65;6.15;;;7.20;94.10;;;;;;5034340;28;20233;-60
2022/02/27 10:24:00;;;;;;;6.90;6.20;;;7.20;93.70;;;;;;5059986;22;20194;-65
2022/02/27 10:26:30;;;;;;;8.70;6.10;;;7.40;93.40;;;;;;5015387;28;20206;-64
2022/02/27 10:29:08;;;;;;;6.13;5.50;;;7.40;93.00;;;;;;5015634;28;20206;-65
2022/02/27 10:31:35;;;;;;;7.78;6.47;;;7.60;92.50;;;;;;5016817;28;20207;-65
2022/02/27 10:34:21;;;;;;;8.88;7.35;;;7.70;92.10;;;;;;5019168;28;20234;-64
2022/02/27 10:37:03;;;;;;;10.63;6.35;;;7.70;91.70;;;;;;5016509;28;20604;-65
2022/02/27 10:39:43;;;;;;;10.23;6.13;;;7.80;91.20;;;;;;5015476;28;20199;-65
2022/02/27 10:42:17;;;;;;;7.80;6.63;;;7.80;90.50;;;;;;5015232;28;20198;-65
2022/02/27 10:44:51;;;;;;;8.77;5.15;;;7.80;90.30;;;;;;5015084;28;20226;-65
2022/02/27 10:47:20;;;;;;;14.40;7.13;;;7.80;89.80;;;;;;5014532;28;20222;-65
2022/02/27 10:49:49;;;;;;;9.50;5.97;;;7.90;89.10;;;;;;5014446;28;20230;-65
2022/02/27 10:52:18;;;;;;;7.45;5.80;;;7.90;88.70;;;;;;5014459;28;20207;-65
2022/02/27 10:54:48;;;;;;;10.13;6.15;;;8.00;88.30;;;;;;5014545;28;20636;-64
2022/02/27 10:57:44;;;;;;;7.05;5.70;;;8.10;87.40;;;;;;5014579;28;20199;-64
2022/02/27 11:00:14;;;;;;;7.15;6.20;;;8.20;86.80;;;;;;4981049;28;20211;-64
2022/02/27 11:02:42;;;;;;;8.13;6.07;;;8.30;86.40;;;;;;5015100;28;20203;-64
2022/02/27 11:05:11;;;;;;;11.18;6.45;;;8.50;85.50;;;;;;5014843;28;20283;-64
2022/02/27 11:07:40;;;;;;;11.30;6.88;;;8.60;84.60;;;;;;5015130;28;20206;-64
2022/02/27 11:10:08;;;;;;;8.95;8.05;;;8.60;84.20;;;;;;5014695;28;20257;-65
2022/02/27 11:12:37;;;;;;;8.88;6.85;;;8.70;83.80;;;;;;5014553;28;20199;-64
2022/02/27 11:15:08;;;;;;;12.88;6.88;;;8.70;82.80;;;;;;5014596;28;20246;-65
2022/02/27 11:17:35;;;;;;;14.88;7.38;;;8.80;82.40;;;;;;5013301;28;20203;-64
2022/02/27 11:20:05;;;;;;;12.65;7.60;;;8.80;82.00;;;;;;5014100;28;20203;-64
2022/02/27 11:22:33;;;;;;;8.15;7.03;;;8.80;81.40;;;;;;5014740;28;20226;-64
2022/02/27 11:25:02;;;;;;;11.40;6.40;;;8.90;81.00;;;;;;5014391;28;20736;-64
2022/02/27 11:27:30;;;;;;;10.90;7.25;;;8.90;80.20;;;;;;5014577;28;20199;-64
2022/02/27 11:29:58;;;;;;;9.30;6.95;;;8.90;79.40;;;;;;5014181;28;20703;-64
2022/02/27 11:32:27;;;;;;;7.90;5.68;;;8.90;78.60;;;;;;5015007;28;20203;-64
2022/02/27 11:34:55;;;;;;;10.52;6.90;;;8.90;78.60;;;;;;5014543;28;20227;-64
2022/02/27 11:37:49;;;;;;;7.72;6.85;;;8.90;77.90;;;;;;5014820;28;20207;-64
2022/02/27 11:40:30;;;;;;;8.38;5.95;;;8.90;78.00;;;;;;5014036;28;20648;-64
2022/02/27 11:42:59;;;;;;;7.57;6.20;;;9.00;77.80;;;;;;5014029;28;20186;-64
2022/02/27 11:45:55;;;;;;;10.52;6.43;;;9.10;76.50;;;;;;5013481;28;20219;-64
2022/02/27 11:48:55;;;;;;;9.88;5.75;;;9.10;75.40;;;;;;5013460;28;20675;-64
2022/02/27 11:51:47;;;;;;;8.02;5.80;;;9.20;73.50;;;;;;5013639;28;20247;-64
2022/02/27 11:54:16;;;;;;;11.75;6.28;;;9.20;73.00;;;;;;5013700;28;20242;-64
2022/02/27 11:56:45;;;;;;;11.18;5.60;;;9.30;72.80;;;;;;5013761;28;20213;-62
2022/02/27 11:59:13;;;;;;;7.28;4.75;;;9.40;72.70;;;;;;5014292;28;20209;-64
2022/02/27 12:01:56;;;;;;;12.77;6.50;;;9.50;72.10;;;;;;5015647;28;20226;-64
2022/02/27 12:04:26;;;;;;;13.02;6.43;;;9.60;69.80;;;;;;5015182;28;20289;-63
2022/02/27 12:07:06;;;;;;;7.93;5.43;;;9.60;69.30;;;;;;5013534;28;20211;-63
2022/02/27 12:09:55;;;;;;;11.43;5.70;;;9.60;69.00;;;;;;5013357;28;20186;-65
2022/02/27 12:12:54;;;;;;;5.47;4.13;;;9.40;68.20;;;;;;5013299;28;20446;-65
2022/02/27 12:15:24;;;;;;;6.82;4.88;;;9.40;67.90;;;;;;5013151;28;20226;-65
2022/02/27 12:17:53;;;;;;;5.55;4.30;;;9.50;66.70;;;;;;5013325;28;20207;-64
2022/02/27 12:20:43;;;;;;;5.25;4.00;;;9.50;65.20;;;;;;5013681;28;20202;-64
2022/02/27 12:23:13;;;;;;;7.18;4.50;;;9.60;64.00;;;;;;5013786;28;20187;-64
2022/02/27 12:25:44;;;;;;;5.57;4.17;;;9.60;63.40;;;;;;5013445;28;20233;-64
2022/02/27 12:28:11;;;;;;;7.87;6.00;;;9.70;62.80;;;;;;5014320;28;20449;-64
2022/02/27 12:30:38;;;;;;;10.20;4.90;;;9.90;62.60;;;;;;5016714;28;20896;-64
2022/02/27 12:33:08;;;;;;;6.23;4.30;;;10.00;60.80;;;;;;5017575;28;20445;-64
2022/02/27 12:35:37;;;;;;;8.13;4.30;;;10.10;61.20;;;;;;5017357;28;20465;-63
2022/02/27 12:38:05;;;;;;;9.30;4.40;;;10.20;61.00;;;;;;5017198;28;20449;-65
2022/02/27 12:40:35;;;;;;;8.37;4.90;;;10.20;60.80;;;;;;5017632;28;20453;-65
2022/02/27 12:43:03;;;;;;;10.90;5.20;;;10.20;61.00;;;;;;5017396;28;20445;-65
2022/02/27 12:45:33;;;;;;;8.13;4.00;;;10.30;61.00;;;;;;5017477;28;20493;-66
2022/02/27 12:48:10;;;;;;;8.77;4.23;;;10.40;60.30;;;;;;5017383;28;20461;-65
2022/02/27 12:50:44;;;;;;;12.80;5.70;;;10.50;59.80;;;;;;5017031;28;20488;-65
2022/02/27 12:53:11;;;;;;;9.53;5.13;;;10.40;59.10;;;;;;5017711;28;20442;-65
2022/02/27 12:55:40;;;;;;;9.57;4.63;;;10.30;59.20;;;;;;5018273;28;20469;-65
2022/02/27 12:58:09;;;;;;;8.00;5.17;;;10.10;59.90;;;;;;5018346;28;20446;-65